createdAt,value
2022-08-11T00:00:07.341Z,3.90
2022-08-11T00:01:07.197Z,3.40
2022-08-11T00:02:07.164Z,4.40
2022-08-11T00:03:07.188Z,4.00
2022-08-11T00:04:07.135Z,4.00
2022-08-11T00:05:07.049Z,4.30
2022-08-11T00:06:07.289Z,4.60
2022-08-11T00:07:07.007Z,2.90
2022-08-11T00:08:06.938Z,4.10
2022-08-11T00:09:07.093Z,2.60
2022-08-11T00:10:06.858Z,3.50
2022-08-11T00:11:07.820Z,2.40
2022-08-11T00:12:07.766Z,3.30
2022-08-11T00:13:06.750Z,4.20
2022-08-11T00:14:06.717Z,2.80
2022-08-11T00:15:06.678Z,5.30
2022-08-11T00:16:06.643Z,3.00
2022-08-11T00:17:06.623Z,3.40
2022-08-11T00:18:06.574Z,3.00
2022-08-11T00:19:06.535Z,3.70
2022-08-11T00:20:12.862Z,4.90
2022-08-11T00:21:06.462Z,3.30
2022-08-11T00:22:06.563Z,4.80
2022-08-11T00:23:06.411Z,2.60
2022-08-11T00:24:06.367Z,3.10
2022-08-11T00:25:06.322Z,4.10
2022-08-11T00:26:06.291Z,5.00
2022-08-11T00:27:06.241Z,3.70
2022-08-11T00:28:06.212Z,4.60
2022-08-11T00:29:06.168Z,3.50
2022-08-11T00:30:06.150Z,5.30
2022-08-11T00:31:06.097Z,3.40
2022-08-11T00:32:06.086Z,3.40
2022-08-11T00:33:06.024Z,2.70
2022-08-11T00:34:05.989Z,4.00
2022-08-11T00:35:55.335Z,3.40
2022-08-11T00:36:05.915Z,3.20
2022-08-11T00:37:05.878Z,2.90
2022-08-11T00:38:05.873Z,3.80
2022-08-11T00:39:05.807Z,5.70
2022-08-11T00:40:05.770Z,3.00
2022-08-11T00:41:05.732Z,5.20
2022-08-11T00:42:05.695Z,5.60
2022-08-11T00:43:05.660Z,3.90
2022-08-11T00:44:05.641Z,3.40
2022-08-11T00:45:05.584Z,5.00
2022-08-11T00:46:05.549Z,2.60
2022-08-11T00:47:05.514Z,3.80
2022-08-11T00:48:05.476Z,4.10
2022-08-11T00:49:05.438Z,2.40
2022-08-11T00:50:05.413Z,3.20
2022-08-11T00:51:05.366Z,3.60
2022-08-11T00:52:06.166Z,3.40
2022-08-11T00:53:05.291Z,3.80
2022-08-11T00:54:05.258Z,5.20
2022-08-11T00:55:05.230Z,4.50
2022-08-11T00:56:05.184Z,3.90
2022-08-11T00:57:05.145Z,3.30
2022-08-11T00:58:05.110Z,3.40
2022-08-11T00:59:05.073Z,4.20
2022-08-11T01:00:05.039Z,2.90
2022-08-11T01:01:05.039Z,3.00
2022-08-11T01:02:04.961Z,3.10
2022-08-11T01:03:04.925Z,3.40
2022-08-11T01:04:04.888Z,2.90
2022-08-11T01:05:04.851Z,4.40
2022-08-11T01:06:05.379Z,2.80
2022-08-11T01:07:04.795Z,2.80
2022-08-11T01:08:04.742Z,4.20
2022-08-11T01:09:04.706Z,4.10
2022-08-11T01:10:07.380Z,3.10
2022-08-11T01:11:04.633Z,3.80
2022-08-11T01:12:04.609Z,3.60
2022-08-11T01:13:04.556Z,3.00
2022-08-11T01:14:04.518Z,3.50
2022-08-11T01:15:04.487Z,3.50
2022-08-11T01:16:04.446Z,4.90
2022-08-11T01:17:04.415Z,2.70
2022-08-11T01:18:04.385Z,3.60
2022-08-11T01:19:04.340Z,3.60
2022-08-11T01:20:47.915Z,4.10
2022-08-11T01:21:04.261Z,3.30
2022-08-11T01:22:04.227Z,3.70
2022-08-11T01:23:04.188Z,3.70
2022-08-11T01:24:04.161Z,3.80
2022-08-11T01:25:04.115Z,5.30
2022-08-11T01:26:04.088Z,3.00
2022-08-11T01:27:04.040Z,4.50
2022-08-11T01:28:04.023Z,3.60
2022-08-11T01:29:03.965Z,3.00
2022-08-11T01:30:03.938Z,3.30
2022-08-11T01:31:03.908Z,3.60
2022-08-11T01:32:03.857Z,6.20
2022-08-11T01:33:03.827Z,4.60
2022-08-11T01:34:03.779Z,3.70
2022-08-11T01:35:03.760Z,4.90
2022-08-11T01:36:03.706Z,3.10
2022-08-11T01:37:03.677Z,4.70
2022-08-11T01:38:03.631Z,4.50
2022-08-11T01:39:03.595Z,6.10
2022-08-11T01:40:03.563Z,3.90
2022-08-11T01:41:03.580Z,5.60
2022-08-11T01:42:03.487Z,6.30
2022-08-11T01:43:03.445Z,3.70
2022-08-11T01:44:03.409Z,4.50
2022-08-11T01:45:03.378Z,3.80
2022-08-11T01:46:03.337Z,4.00
2022-08-11T01:47:03.319Z,6.20
2022-08-11T01:48:03.261Z,4.90
2022-08-11T01:50:05.200Z,5.20
2022-08-11T01:50:09.276Z,4.20
2022-08-11T01:51:03.155Z,4.40
2022-08-11T01:52:03.114Z,6.10
2022-08-11T01:53:03.085Z,3.70
2022-08-11T01:54:03.037Z,4.70
2022-08-11T01:55:03.000Z,6.30
2022-08-11T01:56:02.964Z,5.10
2022-08-11T01:57:02.928Z,4.10
2022-08-11T01:58:02.893Z,8.20
2022-08-11T01:59:02.865Z,4.10
2022-08-11T02:00:02.816Z,3.60
2022-08-11T02:01:02.847Z,4.60
2022-08-11T02:02:02.745Z,4.40
2022-08-11T02:03:02.714Z,4.40
2022-08-11T02:04:02.669Z,3.20
2022-08-11T02:05:02.647Z,5.10
2022-08-11T02:06:02.596Z,6.50
2022-08-11T02:07:02.593Z,4.30
2022-08-11T02:08:02.526Z,5.10
2022-08-11T02:09:02.483Z,6.10
2022-08-11T02:10:02.445Z,4.10
2022-08-11T02:11:02.420Z,4.40
2022-08-11T02:12:02.626Z,5.40
2022-08-11T02:13:02.340Z,3.50
2022-08-11T02:14:02.301Z,4.50
2022-08-11T02:15:04.739Z,4.10
2022-08-11T02:16:02.238Z,4.50
2022-08-11T02:17:02.203Z,4.30
2022-08-11T02:18:02.155Z,5.20
2022-08-11T02:19:02.120Z,4.40
2022-08-11T02:20:02.114Z,4.40
2022-08-11T02:21:02.044Z,4.80
2022-08-11T02:22:02.021Z,3.60
2022-08-11T02:23:01.983Z,4.20
2022-08-11T02:24:04.859Z,5.30
2022-08-11T02:25:01.896Z,5.80
2022-08-11T02:26:01.859Z,4.60
2022-08-11T02:27:01.821Z,5.20
2022-08-11T02:28:01.785Z,3.90
2022-08-11T02:29:01.764Z,5.60
2022-08-11T02:30:01.713Z,4.90
2022-08-11T02:31:01.676Z,4.50
2022-08-11T02:32:14.581Z,3.80
2022-08-11T02:33:01.606Z,4.50
2022-08-11T02:34:01.568Z,5.90
2022-08-11T02:35:01.559Z,4.50
2022-08-11T02:36:01.492Z,5.10
2022-08-11T02:37:01.454Z,3.50
2022-08-11T02:38:01.417Z,4.80
2022-08-11T02:39:01.384Z,2.80
2022-08-11T02:40:01.363Z,3.20
2022-08-11T02:41:01.308Z,3.50
2022-08-11T02:42:01.272Z,5.40
2022-08-11T02:43:01.236Z,3.70
2022-08-11T02:44:01.205Z,4.40
2022-08-11T02:45:01.160Z,4.60
2022-08-11T02:46:01.135Z,5.40
2022-08-11T02:47:01.087Z,6.30
2022-08-11T02:48:01.053Z,3.90
2022-08-11T02:49:01.016Z,5.80
2022-08-11T02:50:07.432Z,5.40
2022-08-11T02:51:00.947Z,6.10
2022-08-11T02:52:00.922Z,4.30
2022-08-11T02:53:00.881Z,3.70
2022-08-11T02:54:00.842Z,4.90
2022-08-11T02:55:00.799Z,3.40
2022-08-11T02:56:00.762Z,5.40
2022-08-11T02:57:00.749Z,3.20
2022-08-11T02:58:00.700Z,5.00
2022-08-11T02:59:00.654Z,3.70
2022-08-11T03:00:00.615Z,5.00
2022-08-11T03:01:08.353Z,3.90
2022-08-11T03:02:00.649Z,3.60
2022-08-11T03:03:00.505Z,4.70
2022-08-11T03:04:00.492Z,4.90
2022-08-11T03:05:00.435Z,4.30
2022-08-11T03:06:00.394Z,4.00
2022-08-11T03:07:00.360Z,4.00
2022-08-11T03:08:00.322Z,4.10
2022-08-11T03:09:00.287Z,4.30
2022-08-11T03:10:00.259Z,4.00
2022-08-11T03:11:00.214Z,4.90
2022-08-11T03:12:00.177Z,5.40
2022-08-11T03:13:00.141Z,4.60
2022-08-11T03:14:00.101Z,3.30
2022-08-11T03:15:00.068Z,4.50
2022-08-11T03:16:00.038Z,3.60
2022-08-11T03:16:59.996Z,5.40
2022-08-11T03:17:59.956Z,3.30
2022-08-11T03:18:59.919Z,4.60
2022-08-11T03:19:59.884Z,5.20
2022-08-11T03:20:59.846Z,4.80
2022-08-11T03:22:02.884Z,4.70
2022-08-11T03:22:59.771Z,3.60
2022-08-11T03:23:59.732Z,5.30
2022-08-11T03:24:59.695Z,5.10
2022-08-11T03:25:59.662Z,4.60
2022-08-11T03:26:59.622Z,5.30
2022-08-11T03:28:01.179Z,5.40
2022-08-11T03:28:59.550Z,3.20
2022-08-11T03:29:59.516Z,4.00
2022-08-11T03:30:59.474Z,4.00
2022-08-11T03:31:59.437Z,3.40
2022-08-11T03:32:59.418Z,4.80
2022-08-11T03:34:02.761Z,4.70
2022-08-11T03:34:59.327Z,5.30
2022-08-11T03:35:59.296Z,3.40
2022-08-11T03:37:16.005Z,4.10
2022-08-11T03:37:59.214Z,5.60
2022-08-11T03:38:59.189Z,4.20
2022-08-11T03:39:59.225Z,3.60
2022-08-11T03:40:59.106Z,3.90
2022-08-11T03:42:04.449Z,3.70
2022-08-11T03:42:59.029Z,4.90
2022-08-11T03:43:59.012Z,3.70
2022-08-11T03:44:58.966Z,3.50
2022-08-11T03:45:58.923Z,6.30
2022-08-11T03:46:58.887Z,4.70
2022-08-11T03:47:58.844Z,6.10
2022-08-11T03:48:58.804Z,4.10
2022-08-11T03:49:58.769Z,3.50
2022-08-11T03:50:58.742Z,5.60
2022-08-11T03:51:58.696Z,7.40
2022-08-11T03:52:58.656Z,4.50
2022-08-11T03:53:58.617Z,3.90
2022-08-11T03:54:58.583Z,3.70
2022-08-11T03:55:58.571Z,4.80
2022-08-11T03:56:58.510Z,6.30
2022-08-11T03:57:58.470Z,4.00
2022-08-11T03:58:59.368Z,5.00
2022-08-11T03:59:58.396Z,5.30
2022-08-11T04:00:58.359Z,5.30
2022-08-11T04:01:58.372Z,4.50
2022-08-11T04:02:58.297Z,4.90
2022-08-11T04:03:58.247Z,4.00
2022-08-11T04:04:58.209Z,4.00
2022-08-11T04:05:58.169Z,3.10
2022-08-11T04:06:58.135Z,5.30
2022-08-11T04:07:58.106Z,3.40
2022-08-11T04:08:58.058Z,6.30
2022-08-11T04:09:58.020Z,5.20
2022-08-11T04:10:59.604Z,4.10
2022-08-11T04:11:57.945Z,4.80
2022-08-11T04:12:57.910Z,4.60
2022-08-11T04:13:57.883Z,5.10
2022-08-11T04:14:57.838Z,5.10
2022-08-11T04:15:57.795Z,5.70
2022-08-11T04:16:57.760Z,5.00
2022-08-11T04:17:57.721Z,6.00
2022-08-11T04:18:57.685Z,4.10
2022-08-11T04:19:57.659Z,4.30
2022-08-11T04:20:57.612Z,5.60
2022-08-11T04:21:57.571Z,4.00
2022-08-11T04:22:57.533Z,5.90
2022-08-11T04:24:35.873Z,7.90
2022-08-11T04:24:57.465Z,4.90
2022-08-11T04:25:58.612Z,4.60
2022-08-11T04:26:57.384Z,5.50
2022-08-11T04:27:57.346Z,5.80
2022-08-11T04:28:57.306Z,5.70
2022-08-11T04:30:03.470Z,6.50
2022-08-11T04:30:57.243Z,4.40
2022-08-11T04:31:57.192Z,4.60
2022-08-11T04:32:57.164Z,5.60
2022-08-11T04:33:57.222Z,8.80
2022-08-11T04:34:57.082Z,9.60
2022-08-11T04:35:57.047Z,10.30
2022-08-11T04:36:57.020Z,21.50
2022-08-11T04:37:56.968Z,31.30
2022-08-11T04:38:56.951Z,22.90
2022-08-11T04:39:56.896Z,22.40
2022-08-11T04:40:56.868Z,17.80
2022-08-11T04:41:56.823Z,12.90
2022-08-11T04:42:56.801Z,9.20
2022-08-11T04:44:06.247Z,18.80
2022-08-11T04:44:56.709Z,18.70
2022-08-11T04:45:56.668Z,31.00
2022-08-11T04:46:56.635Z,10.80
2022-08-11T04:48:03.875Z,13.40
2022-08-11T04:48:56.564Z,22.50
2022-08-11T04:49:56.520Z,16.20
2022-08-11T04:51:09.582Z,18.50
2022-08-11T04:51:56.440Z,15.60
2022-08-11T04:52:56.412Z,14.40
2022-08-11T04:53:56.366Z,16.20
2022-08-11T04:54:56.342Z,11.30
2022-08-11T04:55:56.296Z,9.40
2022-08-11T04:56:56.267Z,13.30
2022-08-11T04:57:56.216Z,13.00
2022-08-11T04:58:56.178Z,12.30
2022-08-11T04:59:56.140Z,8.40
2022-08-11T05:00:56.750Z,9.80
2022-08-11T05:01:56.128Z,13.90
2022-08-11T05:02:56.032Z,6.40
2022-08-11T05:03:55.987Z,8.60
2022-08-11T05:04:55.952Z,7.10
2022-08-11T05:05:56.934Z,7.60
2022-08-11T05:06:55.890Z,7.50
2022-08-11T05:07:55.840Z,8.10
2022-08-11T05:08:55.803Z,6.70
2022-08-11T05:09:55.767Z,9.50
2022-08-11T05:10:55.728Z,5.70
2022-08-11T05:11:57.856Z,7.10
2022-08-11T05:12:55.669Z,7.90
2022-08-11T05:13:55.620Z,4.60
2022-08-11T05:14:55.590Z,8.30
2022-08-11T05:15:55.540Z,6.30
2022-08-11T05:16:55.502Z,9.70
2022-08-11T05:17:55.482Z,5.90
2022-08-11T05:18:55.439Z,8.10
2022-08-11T05:19:55.393Z,5.60
2022-08-11T05:20:55.355Z,6.20
2022-08-11T05:21:55.324Z,6.10
2022-08-11T05:22:55.395Z,7.20
2022-08-11T05:23:55.247Z,5.80
2022-08-11T05:24:55.249Z,5.20
2022-08-11T05:26:43.910Z,7.30
2022-08-11T05:26:55.134Z,5.40
2022-08-11T05:27:55.101Z,5.00
2022-08-11T05:28:55.065Z,7.00
2022-08-11T05:29:55.038Z,6.10
2022-08-11T05:30:54.994Z,6.40
2022-08-11T05:31:54.975Z,5.90
2022-08-11T05:32:59.374Z,5.30
2022-08-11T05:33:54.898Z,7.00
2022-08-11T05:34:54.954Z,5.90
2022-08-11T05:35:59.990Z,5.00
2022-08-11T05:37:11.570Z,6.10
2022-08-11T05:37:54.761Z,5.60
2022-08-11T05:38:54.722Z,4.60
2022-08-11T05:39:54.752Z,5.90
2022-08-11T05:41:00.037Z,5.80
2022-08-11T05:41:54.612Z,4.70
2022-08-11T05:42:54.589Z,5.40
2022-08-11T05:44:21.890Z,6.60
2022-08-11T05:44:54.517Z,6.60
2022-08-11T05:46:02.636Z,5.40
2022-08-11T05:46:54.440Z,5.30
2022-08-11T05:47:54.408Z,5.70
2022-08-11T05:48:54.378Z,6.60
2022-08-11T05:49:54.338Z,5.00
2022-08-11T05:50:54.315Z,5.80
2022-08-11T05:51:55.334Z,5.90
2022-08-11T05:52:56.612Z,5.50
2022-08-11T05:53:54.205Z,9.30
2022-08-11T05:54:54.310Z,7.80
2022-08-11T05:56:02.200Z,8.60
2022-08-11T05:56:54.118Z,9.90
2022-08-11T05:57:54.077Z,7.70
2022-08-11T05:58:54.039Z,7.40
2022-08-11T05:59:54.005Z,6.70
2022-08-11T06:00:53.973Z,6.20
2022-08-11T06:01:53.990Z,6.30
2022-08-11T06:02:53.917Z,5.60
2022-08-11T06:03:58.120Z,7.40
2022-08-11T06:04:53.842Z,7.30
2022-08-11T06:05:54.130Z,7.80
2022-08-11T06:06:53.775Z,7.60
2022-08-11T06:07:53.753Z,6.20
2022-08-11T06:08:53.716Z,8.30
2022-08-11T06:09:53.677Z,7.70
2022-08-11T06:10:53.647Z,7.60
2022-08-11T06:11:53.614Z,5.90
2022-08-11T06:12:53.579Z,8.90
2022-08-11T06:13:53.561Z,6.90
2022-08-11T06:14:53.513Z,5.70
2022-08-11T06:15:53.484Z,8.00
2022-08-11T06:16:53.454Z,6.40
2022-08-11T06:17:53.421Z,7.30
2022-08-11T06:18:53.388Z,6.80
2022-08-11T06:19:53.370Z,6.50
2022-08-11T06:20:53.320Z,7.10
2022-08-11T06:21:53.335Z,5.90
2022-08-11T06:22:53.270Z,10.20
2022-08-11T06:23:53.225Z,6.50
2022-08-11T06:24:53.193Z,7.20
2022-08-11T06:25:53.176Z,7.50
2022-08-11T06:27:12.431Z,6.60
2022-08-11T06:27:53.098Z,7.90
2022-08-11T06:28:53.064Z,7.20
2022-08-11T06:29:55.157Z,6.20
2022-08-11T06:30:53.000Z,8.20
2022-08-11T06:31:52.983Z,6.90
2022-08-11T06:32:52.936Z,7.30
2022-08-11T06:33:52.903Z,7.10
2022-08-11T06:34:52.879Z,4.60
2022-08-11T06:35:52.843Z,5.30
2022-08-11T06:36:52.812Z,7.10
2022-08-11T06:37:53.652Z,5.90
2022-08-11T06:38:52.746Z,6.90
2022-08-11T06:39:52.761Z,5.60
2022-08-11T06:40:52.687Z,7.10
2022-08-11T06:41:52.652Z,6.90
2022-08-11T06:42:52.636Z,4.70
2022-08-11T06:43:55.297Z,4.00
2022-08-11T06:44:52.555Z,5.60
2022-08-11T06:45:52.532Z,4.50
2022-08-11T06:46:52.493Z,5.90
2022-08-11T06:47:52.467Z,5.20
2022-08-11T06:48:52.444Z,6.00
2022-08-11T06:49:52.398Z,4.00
2022-08-11T06:50:52.374Z,6.50
2022-08-11T06:51:52.339Z,8.70
2022-08-11T06:52:52.305Z,6.70
2022-08-11T06:54:03.179Z,7.20
2022-08-11T06:54:52.252Z,5.20
2022-08-11T06:55:56.671Z,3.90
2022-08-11T06:57:06.615Z,6.00
2022-08-11T06:57:52.146Z,5.40
2022-08-11T06:58:52.119Z,5.80
2022-08-11T06:59:52.099Z,4.80
2022-08-11T07:00:52.053Z,5.30
2022-08-11T07:01:52.110Z,4.80
2022-08-11T07:02:51.994Z,6.80
2022-08-11T07:03:51.977Z,3.70
2022-08-11T07:04:51.933Z,3.20
2022-08-11T07:05:51.915Z,8.30
2022-08-11T07:06:51.872Z,5.90
2022-08-11T07:07:51.842Z,6.30
2022-08-11T07:08:51.809Z,4.80
2022-08-11T07:09:51.790Z,5.10
2022-08-11T07:10:51.746Z,5.60
2022-08-11T07:11:51.730Z,5.10
2022-08-11T07:12:51.690Z,4.40
2022-08-11T07:13:51.655Z,6.20
2022-08-11T07:14:51.624Z,6.70
2022-08-11T07:16:12.980Z,4.80
2022-08-11T07:16:51.563Z,6.00
2022-08-11T07:17:51.546Z,4.40
2022-08-11T07:18:51.507Z,4.60
2022-08-11T07:19:51.475Z,6.40
2022-08-11T07:20:51.444Z,5.70
2022-08-11T07:22:01.345Z,5.50
2022-08-11T07:22:51.384Z,5.40
2022-08-11T07:23:51.366Z,5.70
2022-08-11T07:25:01.831Z,8.50
2022-08-11T07:25:51.293Z,3.90
2022-08-11T07:26:51.261Z,4.20
2022-08-11T07:27:51.230Z,5.30
2022-08-11T07:28:51.198Z,4.20
2022-08-11T07:29:51.186Z,3.70
2022-08-11T07:30:51.892Z,5.50
2022-08-11T07:31:51.114Z,6.00
2022-08-11T07:32:51.080Z,3.80
2022-08-11T07:34:07.013Z,4.00
2022-08-11T07:34:51.030Z,5.40
2022-08-11T07:35:51.007Z,6.10
2022-08-11T07:36:50.962Z,5.80
2022-08-11T07:37:50.930Z,6.50
2022-08-11T07:38:50.917Z,4.10
2022-08-11T07:39:50.930Z,5.70
2022-08-11T07:40:50.847Z,4.30
2022-08-11T07:41:50.824Z,5.90
2022-08-11T07:42:50.780Z,4.70
2022-08-11T07:43:50.768Z,5.70
2022-08-11T07:44:50.722Z,4.00
2022-08-11T07:45:50.693Z,6.70
2022-08-11T07:46:50.667Z,4.40
2022-08-11T07:47:50.647Z,6.00
2022-08-11T07:48:50.609Z,5.70
2022-08-11T07:49:50.576Z,4.90
2022-08-11T07:50:55.534Z,6.20
2022-08-11T07:51:50.517Z,5.40
2022-08-11T07:52:52.855Z,5.20
2022-08-11T07:54:15.332Z,5.40
2022-08-11T07:54:51.341Z,7.10
2022-08-11T07:55:51.724Z,5.00
2022-08-11T07:56:54.688Z,5.20
2022-08-11T07:58:14.083Z,6.00
2022-08-11T07:58:53.324Z,5.10
2022-08-11T08:00:00.030Z,5.60
2022-08-11T08:00:51.740Z,4.60
2022-08-11T08:01:50.272Z,5.40
2022-08-11T08:02:50.195Z,5.10
2022-08-11T08:03:53.998Z,8.30
2022-08-11T08:04:50.176Z,5.10
2022-08-11T08:05:50.111Z,5.50
2022-08-11T08:06:50.080Z,5.70
2022-08-11T08:07:50.060Z,5.80
2022-08-11T08:08:50.021Z,7.60
2022-08-11T08:09:50.006Z,3.80
2022-08-11T08:10:49.967Z,6.40
2022-08-11T08:11:49.939Z,4.20
2022-08-11T08:12:49.911Z,4.30
2022-08-11T08:13:50.462Z,3.10
2022-08-11T08:14:49.866Z,3.90
2022-08-11T08:15:49.826Z,4.80
2022-08-11T08:16:49.797Z,3.90
2022-08-11T08:18:13.617Z,5.50
2022-08-11T08:18:49.742Z,5.10
2022-08-11T08:19:49.718Z,3.40
2022-08-11T08:20:49.732Z,3.50
2022-08-11T08:21:49.662Z,3.50
2022-08-11T08:22:50.077Z,4.00
2022-08-11T08:23:53.075Z,5.20
2022-08-11T08:24:49.574Z,4.10
2022-08-11T08:25:49.560Z,4.60
2022-08-11T08:26:51.456Z,5.10
2022-08-11T08:27:49.494Z,4.60
2022-08-11T08:28:49.466Z,4.90
2022-08-11T08:29:49.438Z,6.30
2022-08-11T08:30:49.422Z,4.30
2022-08-11T08:31:49.382Z,3.30
2022-08-11T08:32:49.360Z,5.60
2022-08-11T08:33:49.330Z,4.20
2022-08-11T08:34:49.299Z,3.70
2022-08-11T08:35:55.863Z,4.60
2022-08-11T08:36:49.253Z,5.90
2022-08-11T08:37:49.306Z,4.60
2022-08-11T08:38:49.190Z,3.60
2022-08-11T08:39:49.273Z,5.60
2022-08-11T08:40:49.135Z,5.70
2022-08-11T08:41:49.127Z,5.50
2022-08-11T08:42:49.083Z,3.90
2022-08-11T08:43:49.630Z,2.40
2022-08-11T08:44:49.028Z,3.90
2022-08-11T08:45:49.003Z,3.30
2022-08-11T08:46:48.976Z,3.10
2022-08-11T08:47:53.079Z,2.60
2022-08-11T08:48:48.920Z,4.80
2022-08-11T08:49:48.894Z,3.70
2022-08-11T08:50:48.869Z,3.80
2022-08-11T08:51:58.805Z,4.50
2022-08-11T08:52:49.268Z,5.70
2022-08-11T08:53:52.685Z,2.90
2022-08-11T08:54:48.763Z,3.10
2022-08-11T08:55:48.740Z,3.60
2022-08-11T08:56:48.707Z,5.40
2022-08-11T08:57:48.680Z,2.50
2022-08-11T08:58:48.668Z,4.00
2022-08-11T08:59:51.375Z,2.80
2022-08-11T09:00:48.598Z,4.10
2022-08-11T09:01:56.536Z,3.30
2022-08-11T09:02:48.749Z,6.20
2022-08-11T09:04:06.844Z,3.50
2022-08-11T09:04:48.520Z,3.70
2022-08-11T09:05:48.473Z,3.80
2022-08-11T09:06:50.124Z,5.20
2022-08-11T09:07:48.417Z,3.60
2022-08-11T09:08:49.616Z,5.10
2022-08-11T09:09:48.360Z,2.60
2022-08-11T09:10:48.346Z,4.70
2022-08-11T09:11:48.306Z,4.70
2022-08-11T09:12:48.625Z,3.20
2022-08-11T09:14:05.563Z,3.50
2022-08-11T09:14:48.253Z,3.90
2022-08-11T09:15:49.033Z,2.60
2022-08-11T09:16:48.188Z,3.90
2022-08-11T09:17:48.151Z,3.50
2022-08-11T09:18:48.121Z,2.20
2022-08-11T09:19:52.177Z,3.20
2022-08-11T09:20:48.068Z,2.60
2022-08-11T09:21:49.507Z,4.60
2022-08-11T09:22:57.336Z,2.80
2022-08-11T09:24:24.873Z,2.70
2022-08-11T09:24:48.003Z,4.00
2022-08-11T09:25:47.939Z,3.50
2022-08-11T09:26:47.917Z,3.10
2022-08-11T09:27:50.345Z,3.60
2022-08-11T09:28:47.873Z,3.20
2022-08-11T09:29:47.830Z,3.20
2022-08-11T09:30:47.811Z,4.10
2022-08-11T09:31:47.783Z,3.70
2022-08-11T09:32:47.759Z,2.90
2022-08-11T09:33:47.730Z,2.80
2022-08-11T09:34:47.775Z,3.90
2022-08-11T09:35:47.684Z,3.60
2022-08-11T09:36:47.654Z,4.70
2022-08-11T09:37:55.322Z,3.70
2022-08-11T09:38:49.668Z,3.10
2022-08-11T09:39:47.663Z,3.80
2022-08-11T09:40:47.552Z,3.20
2022-08-11T09:41:55.671Z,3.00
2022-08-11T09:42:47.505Z,4.20
2022-08-11T09:43:47.478Z,4.30
2022-08-11T09:44:47.481Z,2.70
2022-08-11T09:45:47.435Z,2.40
2022-08-11T09:46:47.403Z,3.30
2022-08-11T09:47:47.382Z,3.80
2022-08-11T09:48:47.350Z,4.30
2022-08-11T09:49:47.324Z,2.40
2022-08-11T09:50:47.321Z,3.30
2022-08-11T09:52:02.063Z,3.50
2022-08-11T09:53:09.985Z,3.90
2022-08-11T09:54:03.488Z,2.70
2022-08-11T09:54:48.114Z,3.60
2022-08-11T09:55:47.172Z,2.40
2022-08-11T09:56:47.157Z,4.80
2022-08-11T09:57:47.124Z,3.60
2022-08-11T09:58:47.116Z,3.50
2022-08-11T09:59:47.074Z,3.00
2022-08-11T10:00:47.124Z,3.40
2022-08-11T10:01:47.359Z,2.50
2022-08-11T10:02:47.010Z,3.00
2022-08-11T10:03:46.986Z,2.50
2022-08-11T10:04:46.946Z,4.30
2022-08-11T10:05:46.922Z,3.30
2022-08-11T10:06:47.508Z,3.80
2022-08-11T10:07:46.869Z,3.10
2022-08-11T10:08:46.858Z,2.90
2022-08-11T10:09:46.822Z,2.40
2022-08-11T10:10:46.797Z,3.30
2022-08-11T10:11:55.438Z,2.90
2022-08-11T10:12:46.743Z,3.30
2022-08-11T10:14:31.123Z,4.30
2022-08-11T10:14:46.725Z,3.90
2022-08-11T10:16:14.611Z,5.20
2022-08-11T10:16:46.644Z,4.20
2022-08-11T10:17:46.619Z,3.70
2022-08-11T10:18:46.595Z,3.40
2022-08-11T10:20:04.474Z,4.50
2022-08-11T10:20:46.557Z,4.80
2022-08-11T10:21:46.518Z,3.80
2022-08-11T10:22:46.495Z,4.20
2022-08-11T10:24:00.905Z,3.40
2022-08-11T10:24:46.455Z,2.80
2022-08-11T10:25:46.416Z,3.70
2022-08-11T10:28:33.855Z,4.20
2022-08-11T10:29:18.810Z,3.80
2022-08-11T10:30:18.404Z,2.20
2022-08-11T10:31:18.376Z,2.00
2022-08-11T10:32:18.340Z,4.10
2022-08-11T10:33:19.010Z,3.70
2022-08-11T10:34:19.049Z,3.60
2022-08-11T10:35:18.262Z,3.00
2022-08-11T10:36:18.240Z,3.30
2022-08-11T10:37:18.222Z,2.40
2022-08-11T10:38:18.310Z,5.00
2022-08-11T10:39:18.359Z,4.10
2022-08-11T10:40:18.136Z,3.60
2022-08-11T10:41:18.110Z,4.00
2022-08-11T10:42:34.981Z,3.00
2022-08-11T10:43:18.811Z,2.50
2022-08-11T10:44:18.035Z,2.10
2022-08-11T10:45:18.008Z,3.30
2022-08-11T10:46:17.986Z,2.70
2022-08-11T10:47:17.957Z,4.30
2022-08-11T10:48:17.935Z,2.30
2022-08-11T10:49:17.922Z,2.80
2022-08-11T10:50:17.901Z,3.00
2022-08-11T10:51:50.430Z,4.90
2022-08-11T10:52:17.844Z,4.10
2022-08-11T10:53:17.803Z,5.60
2022-08-11T10:54:17.781Z,3.60
2022-08-11T10:55:17.757Z,5.50
2022-08-11T10:56:17.733Z,2.30
2022-08-11T10:57:17.718Z,3.60
2022-08-11T10:58:17.681Z,4.20
2022-08-11T10:59:17.656Z,3.50
2022-08-11T11:00:17.633Z,3.70
2022-08-11T11:01:17.666Z,3.70
2022-08-11T11:02:17.591Z,4.00
2022-08-11T11:03:23.534Z,2.40
2022-08-11T11:04:17.531Z,3.60
2022-08-11T11:05:17.504Z,3.50
2022-08-11T11:06:29.505Z,3.90
2022-08-11T11:07:17.453Z,4.70
2022-08-11T11:08:17.441Z,3.10
2022-08-11T11:09:17.405Z,3.90
2022-08-11T11:10:17.387Z,4.20
2022-08-11T11:11:18.387Z,2.90
2022-08-11T11:12:17.326Z,2.10
2022-08-11T11:13:17.299Z,2.90
2022-08-11T11:14:17.275Z,3.70
2022-08-11T11:15:17.901Z,2.90
2022-08-11T11:16:17.224Z,2.80
2022-08-11T11:17:17.194Z,3.70
2022-08-11T11:18:17.172Z,2.30
2022-08-11T11:19:17.143Z,3.00
2022-08-11T11:20:36.335Z,3.40
2022-08-11T11:21:17.101Z,3.30
2022-08-11T11:22:17.070Z,3.40
2022-08-11T11:23:17.040Z,6.50
2022-08-11T11:24:17.014Z,4.10
2022-08-11T11:25:16.987Z,3.90
2022-08-11T11:26:16.964Z,3.20
2022-08-11T11:27:16.949Z,3.20
2022-08-11T11:28:16.915Z,3.40
2022-08-11T11:29:16.884Z,2.90
2022-08-11T11:30:16.863Z,3.80
2022-08-11T11:31:16.838Z,3.10
2022-08-11T11:32:16.824Z,5.00
2022-08-11T11:33:16.787Z,3.70
2022-08-11T11:34:16.761Z,2.80
2022-08-11T11:35:16.732Z,3.10
2022-08-11T11:36:16.709Z,4.80
2022-08-11T11:37:16.691Z,3.80
2022-08-11T11:38:16.658Z,2.00
2022-08-11T11:39:16.664Z,4.40
2022-08-11T11:40:16.605Z,3.00
2022-08-11T11:41:16.578Z,2.10
2022-08-11T11:42:16.556Z,3.50
2022-08-11T11:43:16.541Z,6.40
2022-08-11T11:44:16.526Z,5.50
2022-08-11T11:45:23.853Z,3.60
2022-08-11T11:46:16.447Z,2.40
2022-08-11T11:47:16.427Z,4.80
2022-08-11T11:48:16.402Z,3.50
2022-08-11T11:49:17.156Z,3.90
2022-08-11T11:50:16.348Z,3.60
2022-08-11T11:51:16.323Z,3.30
2022-08-11T11:52:16.298Z,4.60
2022-08-11T11:53:16.271Z,2.90
2022-08-11T11:54:16.248Z,2.80
2022-08-11T11:55:16.264Z,3.00
2022-08-11T11:56:16.212Z,5.30
2022-08-11T11:57:16.168Z,3.30
2022-08-11T11:58:18.845Z,3.90
2022-08-11T11:59:16.124Z,4.70
2022-08-11T12:00:16.092Z,4.50
2022-08-11T12:01:16.078Z,2.80
2022-08-11T12:02:16.040Z,4.10
2022-08-11T12:03:16.065Z,2.70
2022-08-11T12:04:15.993Z,4.00
2022-08-11T12:05:15.975Z,2.90
2022-08-11T12:06:15.940Z,4.20
2022-08-11T12:07:15.928Z,4.50
2022-08-11T12:08:15.892Z,3.80
2022-08-11T12:09:15.867Z,3.80
2022-08-11T12:10:15.842Z,4.90
2022-08-11T12:11:15.823Z,2.50
2022-08-11T12:12:15.795Z,3.00
2022-08-11T12:13:15.779Z,4.40
2022-08-11T12:14:15.737Z,3.60
2022-08-11T12:15:15.712Z,3.00
2022-08-11T12:16:34.727Z,3.00
2022-08-11T12:17:15.667Z,4.00
2022-08-11T12:18:15.634Z,4.40
2022-08-11T12:19:15.624Z,4.00
2022-08-11T12:20:33.967Z,4.30
2022-08-11T12:21:15.561Z,4.30
2022-08-11T12:22:15.533Z,4.30
2022-08-11T12:23:15.509Z,5.80
2022-08-11T12:24:15.498Z,4.30
2022-08-11T12:25:15.464Z,2.90
2022-08-11T12:26:26.928Z,4.60
2022-08-11T12:27:17.748Z,3.40
2022-08-11T12:28:15.380Z,3.40
2022-08-11T12:29:15.353Z,4.40
2022-08-11T12:30:15.340Z,3.30
2022-08-11T12:31:15.304Z,2.40
2022-08-11T12:32:15.276Z,2.50
2022-08-11T12:33:15.252Z,3.70
2022-08-11T12:34:15.229Z,2.90
2022-08-11T12:35:15.213Z,4.40
2022-08-11T12:36:15.175Z,3.70
2022-08-11T12:37:15.153Z,3.60
2022-08-11T12:38:15.132Z,4.30
2022-08-11T12:39:23.360Z,4.80
2022-08-11T12:40:42.783Z,2.50
2022-08-11T12:41:16.241Z,3.60
2022-08-11T12:42:15.027Z,4.00
2022-08-11T12:43:20.653Z,3.00
2022-08-11T12:44:14.978Z,3.90
2022-08-11T12:45:22.183Z,5.20
2022-08-11T12:46:14.936Z,4.60
2022-08-11T12:47:14.900Z,5.40
2022-08-11T12:49:00.404Z,2.80
2022-08-11T12:49:14.849Z,5.30
2022-08-11T12:50:22.892Z,5.80
2022-08-11T12:51:14.802Z,3.40
2022-08-11T12:52:15.885Z,2.40
2022-08-11T12:53:14.757Z,2.50
2022-08-11T12:54:14.727Z,3.80
2022-08-11T12:55:14.703Z,4.50
2022-08-11T12:56:14.677Z,3.80
2022-08-11T12:57:14.652Z,6.10
2022-08-11T12:58:14.635Z,3.90
2022-08-11T12:59:14.603Z,2.10
2022-08-11T13:00:14.575Z,3.80
2022-08-11T13:01:14.586Z,4.90
2022-08-11T13:02:14.526Z,5.30
2022-08-11T13:03:14.521Z,4.40
2022-08-11T13:04:14.479Z,3.20
2022-08-11T13:05:14.466Z,4.80
2022-08-11T13:06:14.455Z,5.30
2022-08-11T13:07:14.404Z,4.30
2022-08-11T13:08:14.376Z,3.30
2022-08-11T13:09:14.367Z,4.20
2022-08-11T13:10:16.739Z,3.60
2022-08-11T13:11:14.309Z,4.90
2022-08-11T13:12:14.282Z,3.10
2022-08-11T13:13:52.333Z,5.20
2022-08-11T13:14:15.343Z,7.00
2022-08-11T13:15:14.216Z,5.30
2022-08-11T13:16:14.191Z,8.30
2022-08-11T13:17:14.154Z,4.20
2022-08-11T13:18:14.139Z,3.70